Time;durP1;ratioP1;P1;durP2;ratioP2;P2;SDS_P1;SDS_P2;PMS_P1;PMS_P2;Temp;Humidity;BMP_temperature;BMP_pressure;BME280_temperature;BME280_humidity;BME280_pressure;Samples;Min_cycle;Max_cycle;Signal;HPM_P1;HPM_P2
2023/05/31 00:01:20;;;;;;;3.63;2.75;;;;;;;;;;5076353;28;20115;-70
2023/05/31 00:03:51;;;;;;;2.65;2.45;;;;;;;;;;5112332;28;20111;-70
2023/05/31 00:06:16;;;;;;;2.85;2.63;;;;;;;;;;5115179;28;20032;-70
2023/05/31 00:08:42;;;;;;;6.47;2.92;;;;;;;;;;5101323;28;20436;-70
2023/05/31 00:11:07;;;;;;;2.70;2.50;;;;;;;;;;5094481;28;20028;-66
2023/05/31 00:13:33;;;;;;;3.17;2.33;;;;;;;;;;5100214;28;20019;-66
2023/05/31 00:15:58;;;;;;;3.67;2.55;;;;;;;;;;5115205;28;20467;-66
2023/05/31 00:18:24;;;;;;;2.88;2.40;;;;;;;;;;5114796;28;20027;-66
2023/05/31 00:20:49;;;;;;;4.82;2.40;;;;;;;;;;5114968;28;20057;-63
2023/05/31 00:23:15;;;;;;;3.58;2.40;;;;;;;;;;5115165;28;20035;-63
2023/05/31 00:25:40;;;;;;;3.15;2.28;;;;;;;;;;5109641;28;20511;-62
2023/05/31 00:28:06;;;;;;;2.45;2.17;;;;;;;;;;5094077;28;20110;-63
2023/05/31 00:30:31;;;;;;;2.28;2.13;;;;;;;;;;5076461;28;20027;-63
2023/05/31 00:32:56;;;;;;;2.40;2.20;;;;;;;;;;5094724;28;20028;-62
2023/05/31 00:35:22;;;;;;;4.63;2.08;;;;;;;;;;5094675;28;20367;-63
2023/05/31 00:37:47;;;;;;;3.03;2.03;;;;;;;;;;5075791;28;20016;-63
2023/05/31 00:40:13;;;;;;;2.55;2.17;;;;;;;;;;5075711;28;20502;-63
2023/05/31 00:42:38;;;;;;;4.07;2.72;;;;;;;;;;5075884;28;20032;-63
2023/05/31 00:45:05;;;;;;;2.42;2.22;;;;;;;;;;5094298;28;20081;-63
2023/05/31 00:47:30;;;;;;;4.60;2.33;;;;;;;;;;5094096;28;20030;-63
2023/05/31 00:49:56;;;;;;;2.40;2.22;;;;;;;;;;5094127;28;20123;-63
2023/05/31 00:52:22;;;;;;;2.45;2.20;;;;;;;;;;5075476;28;20047;-63
2023/05/31 00:54:47;;;;;;;2.08;1.95;;;;;;;;;;5075913;28;20384;-67
2023/05/31 00:57:12;;;;;;;2.47;2.10;;;;;;;;;;5075574;28;20028;-67
2023/05/31 00:59:38;;;;;;;2.22;2.13;;;;;;;;;;5094044;28;20051;-67
2023/05/31 01:02:03;;;;;;;2.22;2.03;;;;;;;;;;5080138;28;20035;-66
2023/05/31 01:04:32;;;;;;;3.58;2.30;;;;;;;;;;5096110;28;20024;-66
2023/05/31 01:07:00;;;;;;;2.10;2.00;;;;;;;;;;5096262;28;20113;-66
2023/05/31 01:09:25;;;;;;;2.45;2.25;;;;;;;;;;5095631;28;20023;-62
2023/05/31 01:12:06;;;;;;;5.13;2.20;;;;;;;;;;5079617;28;20380;-62
2023/05/31 01:14:31;;;;;;;;;;;;;;;;;;5079443;28;20035;-62
2023/05/31 01:17:05;;;;;;;2.53;1.98;;;;;;;;;;5095790;28;19903;-63
2023/05/31 01:19:34;;;;;;;2.38;2.08;;;;;;;;;;5114008;28;20383;-62
2023/05/31 01:21:59;;;;;;;2.72;2.28;;;;;;;;;;5095999;28;20039;-62
2023/05/31 01:24:27;;;;;;;2.53;2.33;;;;;;;;;;5114217;28;20435;-62
2023/05/31 01:26:58;;;;;;;2.90;2.50;;;;;;;;;;5096278;28;20363;-67
2023/05/31 01:29:26;;;;;;;1.92;1.83;;;;;;;;;;5113801;28;20027;-67
2023/05/31 01:31:52;;;;;;;2.25;1.98;;;;;;;;;;5096136;28;20042;-67
2023/05/31 01:34:24;;;;;;;2.50;2.30;;;;;;;;;;5114058;28;20060;-67
2023/05/31 01:36:49;;;;;;;3.20;2.08;;;;;;;;;;5114344;28;20080;-67
2023/05/31 01:39:15;;;;;;;3.20;1.83;;;;;;;;;;5114298;28;20475;-67
2023/05/31 01:41:41;;;;;;;2.47;2.28;;;;;;;;;;5114306;28;20360;-67
2023/05/31 01:44:08;;;;;;;2.30;2.20;;;;;;;;;;5095751;28;20110;-67
2023/05/31 01:46:33;;;;;;;3.13;2.15;;;;;;;;;;5095723;28;20077;-70
2023/05/31 01:49:00;;;;;;;3.15;1.85;;;;;;;;;;5113307;28;20071;-70
2023/05/31 01:51:33;;;;;;;2.50;2.03;;;;;;;;;;5078411;28;20027;-69
2023/05/31 01:53:59;;;;;;;2.85;2.10;;;;;;;;;;5098256;28;20114;-69
2023/05/31 01:56:25;;;;;;;2.63;1.95;;;;;;;;;;5117832;28;20070;-69
2023/05/31 01:58:53;;;;;;;2.03;1.92;;;;;;;;;;5099625;28;20069;-68
2023/05/31 02:01:19;;;;;;;2.20;2.10;;;;;;;;;;5098967;28;20107;-63
2023/05/31 02:03:45;;;;;;;2.30;1.98;;;;;;;;;;5098871;28;20024;-64
2023/05/31 02:06:12;;;;;;;2.55;2.20;;;;;;;;;;5097364;28;20368;-64
2023/05/31 02:08:38;;;;;;;2.22;2.05;;;;;;;;;;5096001;28;20473;-62
2023/05/31 02:11:03;;;;;;;2.47;1.83;;;;;;;;;;5112693;28;20032;-62
2023/05/31 02:13:30;;;;;;;2.30;2.10;;;;;;;;;;5113116;28;20024;-62
2023/05/31 02:15:55;;;;;;;2.22;2.03;;;;;;;;;;5097255;28;20106;-64
2023/05/31 02:18:21;;;;;;;2.08;1.88;;;;;;;;;;5095322;28;20101;-66
2023/05/31 02:20:47;;;;;;;1.92;1.83;;;;;;;;;;5078759;28;20012;-63
2023/05/31 02:23:17;;;;;;;3.30;2.10;;;;;;;;;;5078372;28;20471;-65
2023/05/31 02:25:49;;;;;;;2.22;1.98;;;;;;;;;;5061597;28;20032;-66
2023/05/31 02:28:15;;;;;;;3.38;2.40;;;;;;;;;;5096529;28;20038;-63
2023/05/31 02:30:44;;;;;;;2.95;1.98;;;;;;;;;;5112719;28;20102;-63
2023/05/31 02:33:10;;;;;;;2.33;2.13;;;;;;;;;;5112989;28;20054;-64
2023/05/31 02:35:35;;;;;;;4.35;1.80;;;;;;;;;;5096225;28;20455;-64
2023/05/31 02:38:00;;;;;;;2.03;1.90;;;;;;;;;;5112687;28;20044;-65
2023/05/31 02:40:26;;;;;;;2.20;2.00;;;;;;;;;;5096604;28;20016;-65
2023/05/31 02:42:51;;;;;;;2.33;2.13;;;;;;;;;;5094836;28;20031;-65
2023/05/31 02:45:17;;;;;;;3.08;2.38;;;;;;;;;;5096028;28;20110;-66
2023/05/31 02:47:42;;;;;;;2.72;2.15;;;;;;;;;;5078565;28;20031;-66
2023/05/31 02:50:09;;;;;;;3.03;2.47;;;;;;;;;;5111701;28;20064;-66
2023/05/31 02:52:38;;;;;;;2.20;2.00;;;;;;;;;;5112058;28;20410;-65
2023/05/31 02:55:15;;;;;;;2.42;2.10;;;;;;;;;;5112154;28;20115;-65
2023/05/31 02:58:14;;;;;;;2.30;1.67;;;;;;;;;;5095176;28;20043;-66
2023/05/31 03:00:43;;;;;;;2.28;2.08;;;;;;;;;;5112343;28;20132;-66
2023/05/31 03:03:10;;;;;;;3.35;2.28;;;;;;;;;;5111732;28;20085;-65
2023/05/31 03:05:55;;;;;;;2.20;2.00;;;;;;;;;;5080815;28;20468;-65
2023/05/31 03:08:21;;;;;;;4.32;2.25;;;;;;;;;;5094414;28;20039;-65
2023/05/31 03:10:49;;;;;;;2.83;2.08;;;;;;;;;;5111572;28;20118;-64
2023/05/31 03:13:14;;;;;;;2.05;1.95;;;;;;;;;;5111172;28;20106;-63
2023/05/31 03:15:40;;;;;;;2.63;2.05;;;;;;;;;;5111565;28;20024;-63
2023/05/31 03:18:05;;;;;;;2.83;2.15;;;;;;;;;;5095980;28;20359;-63
2023/05/31 03:20:32;;;;;;;2.85;1.98;;;;;;;;;;5111792;28;20020;-61
2023/05/31 03:22:58;;;;;;;2.50;2.28;;;;;;;;;;5095862;28;20036;-61
2023/05/31 03:25:24;;;;;;;2.25;1.98;;;;;;;;;;5110999;28;20028;-62
2023/05/31 03:27:50;;;;;;;3.72;2.72;;;;;;;;;;5077716;28;20028;-61
2023/05/31 03:30:16;;;;;;;2.65;2.38;;;;;;;;;;5111570;28;20119;-64
2023/05/31 03:32:49;;;;;;;2.67;2.47;;;;;;;;;;5093080;28;20028;-66
2023/05/31 03:35:14;;;;;;;2.42;2.22;;;;;;;;;;5110800;28;20031;-65
2023/05/31 03:37:40;;;;;;;3.38;2.28;;;;;;;;;;5110897;28;20028;-62
2023/05/31 03:40:08;;;;;;;3.05;2.38;;;;;;;;;;5095651;28;20024;-67
2023/05/31 03:42:34;;;;;;;2.67;2.35;;;;;;;;;;5060994;28;20036;-63
2023/05/31 03:45:00;;;;;;;2.63;2.15;;;;;;;;;;5060710;28;20476;-63
2023/05/31 03:47:27;;;;;;;2.63;2.42;;;;;;;;;;5111110;28;20074;-62
2023/05/31 03:49:53;;;;;;;2.63;2.42;;;;;;;;;;5060068;28;20451;-62
2023/05/31 03:52:18;;;;;;;2.80;2.40;;;;;;;;;;5110471;28;20032;-62
2023/05/31 03:54:44;;;;;;;2.20;2.08;;;;;;;;;;5110595;28;20051;-63
2023/05/31 03:57:09;;;;;;;2.75;2.55;;;;;;;;;;5094905;28;20051;-63
2023/05/31 03:59:35;;;;;;;4.95;2.92;;;;;;;;;;5076715;28;20028;-63
2023/05/31 04:02:00;;;;;;;3.85;2.50;;;;;;;;;;5114065;27;20028;-61
2023/05/31 04:04:26;;;;;;;2.65;2.45;;;;;;;;;;5080155;28;20102;-63
2023/05/31 04:06:52;;;;;;;3.28;2.55;;;;;;;;;;5096727;28;20026;-60
2023/05/31 04:09:19;;;;;;;3.97;2.38;;;;;;;;;;5097320;28;20077;-65
2023/05/31 04:11:45;;;;;;;2.45;2.22;;;;;;;;;;5085034;28;20032;-64
2023/05/31 04:14:11;;;;;;;4.60;2.38;;;;;;;;;;5076138;28;20107;-62
2023/05/31 04:16:37;;;;;;;2.47;2.25;;;;;;;;;;5075207;28;20460;-63
2023/05/31 04:19:03;;;;;;;2.63;2.08;;;;;;;;;;5076315;28;20019;-69
2023/05/31 04:21:31;;;;;;;3.13;2.28;;;;;;;;;;5077955;28;20057;-69
2023/05/31 04:23:56;;;;;;;4.93;2.45;;;;;;;;;;5106444;28;20032;-69
2023/05/31 04:26:22;;;;;;;5.63;2.53;;;;;;;;;;5109970;28;20031;-71
2023/05/31 04:28:53;;;;;;;3.17;2.90;;;;;;;;;;5110290;28;20463;-70
2023/05/31 04:31:20;;;;;;;4.20;2.42;;;;;;;;;;5109930;28;20027;-67
2023/05/31 04:33:46;;;;;;;3.33;2.47;;;;;;;;;;5092772;28;20020;-67
2023/05/31 04:36:11;;;;;;;2.85;2.60;;;;;;;;;;5110422;28;20038;-67
2023/05/31 04:38:38;;;;;;;3.40;2.47;;;;;;;;;;5109703;28;20097;-67
2023/05/31 04:41:05;;;;;;;5.75;2.63;;;;;;;;;;5109880;28;20111;-67
2023/05/31 04:43:31;;;;;;;3.45;2.38;;;;;;;;;;5109906;28;20035;-67
2023/05/31 04:46:00;;;;;;;4.63;2.88;;;;;;;;;;5075949;28;20032;-67
2023/05/31 04:48:26;;;;;;;3.30;2.58;;;;;;;;;;5059760;28;20024;-68
2023/05/31 04:50:54;;;;;;;7.10;2.50;;;;;;;;;;5059380;28;20123;-67
2023/05/31 04:53:20;;;;;;;5.22;2.60;;;;;;;;;;5075914;28;20179;-68
2023/05/31 04:55:46;;;;;;;3.92;2.58;;;;;;;;;;5059017;28;20101;-68
2023/05/31 04:58:12;;;;;;;3.75;2.05;;;;;;;;;;5076213;28;20075;-68
2023/05/31 05:00:38;;;;;;;2.72;2.38;;;;;;;;;;5076091;28;20101;-68
2023/05/31 05:03:14;;;;;;;4.35;2.10;;;;;;;;;;5061599;28;20043;-68
2023/05/31 05:05:41;;;;;;;4.32;2.40;;;;;;;;;;5056019;28;20029;-68
2023/05/31 05:08:07;;;;;;;3.33;2.42;;;;;;;;;;5055665;28;20041;-67
2023/05/31 05:10:35;;;;;;;3.05;2.67;;;;;;;;;;5055419;28;20111;-68
2023/05/31 05:13:01;;;;;;;4.10;2.30;;;;;;;;;;5054000;28;20436;-71
2023/05/31 05:15:27;;;;;;;3.72;2.10;;;;;;;;;;5054334;28;20028;-71
2023/05/31 05:17:53;;;;;;;3.65;2.17;;;;;;;;;;5054667;28;20031;-72
2023/05/31 05:20:19;;;;;;;4.65;2.20;;;;;;;;;;5054754;28;20029;-68
2023/05/31 05:22:50;;;;;;;8.25;2.05;;;;;;;;;;5054378;28;20480;-72
2023/05/31 05:25:16;;;;;;;5.65;2.67;;;;;;;;;;5054034;28;20078;-67
2023/05/31 05:27:41;;;;;;;2.30;2.10;;;;;;;;;;5074087;28;20480;-67
2023/05/31 05:30:07;;;;;;;5.50;2.25;;;;;;;;;;5058211;28;20486;-67
2023/05/31 05:32:33;;;;;;;4.43;1.90;;;;;;;;;;5058040;28;20048;-68
2023/05/31 05:34:58;;;;;;;3.78;2.20;;;;;;;;;;5051015;28;20044;-68
2023/05/31 05:37:23;;;;;;;5.53;2.40;;;;;;;;;;5058091;28;20059;-67
2023/05/31 05:39:49;;;;;;;3.72;2.28;;;;;;;;;;5058105;28;20036;-68
2023/05/31 05:42:14;;;;;;;3.40;2.53;;;;;;;;;;5063076;28;20035;-69
2023/05/31 05:44:40;;;;;;;3.63;2.30;;;;;;;;;;5085227;28;20020;-69
2023/05/31 05:47:05;;;;;;;5.00;2.20;;;;;;;;;;5059398;28;20454;-69
2023/05/31 05:49:32;;;;;;;6.60;2.35;;;;;;;;;;5067171;28;20260;-69
2023/05/31 05:51:57;;;;;;;2.47;2.13;;;;;;;;;;5095639;28;20024;-69
2023/05/31 05:54:23;;;;;;;6.05;2.30;;;;;;;;;;5078849;28;20044;-69
2023/05/31 05:56:50;;;;;;;3.85;2.40;;;;;;;;;;5079127;28;20020;-69
2023/05/31 05:59:15;;;;;;;3.17;2.22;;;;;;;;;;5078722;28;20020;-65
2023/05/31 06:01:53;;;;;;;2.58;2.03;;;;;;;;;;5080587;28;20384;-66
2023/05/31 06:04:21;;;;;;;2.95;2.20;;;;;;;;;;5077848;28;20077;-66
2023/05/31 06:06:46;;;;;;;2.83;2.22;;;;;;;;;;5077631;28;20016;-66
2023/05/31 06:09:12;;;;;;;3.95;2.30;;;;;;;;;;5076878;28;20515;-67
2023/05/31 06:11:37;;;;;;;3.13;2.00;;;;;;;;;;5076387;28;20024;-66
2023/05/31 06:14:03;;;;;;;2.40;1.90;;;;;;;;;;5094905;28;20267;-67
2023/05/31 06:16:35;;;;;;;3.25;2.35;;;;;;;;;;5077544;28;20023;-67
2023/05/31 06:19:00;;;;;;;2.58;2.08;;;;;;;;;;5077795;28;20123;-67
2023/05/31 06:21:26;;;;;;;3.13;1.90;;;;;;;;;;5078097;28;20024;-67
2023/05/31 06:23:51;;;;;;;3.70;1.95;;;;;;;;;;5078038;28;20035;-67
2023/05/31 06:26:17;;;;;;;5.72;2.17;;;;;;;;;;5096117;28;20061;-70
2023/05/31 06:28:45;;;;;;;4.72;2.15;;;;;;;;;;5094810;28;20020;-70
2023/05/31 06:31:31;;;;;;;1.50;1.30;;;;;;;;;;5077862;28;20023;-70
2023/05/31 06:33:56;;;;;;;2.60;1.83;;;;;;;;;;5077799;28;20039;-70
2023/05/31 06:36:22;;;;;;;4.00;2.20;;;;;;;;;;5061200;28;20016;-70
2023/05/31 06:38:49;;;;;;;2.30;2.10;;;;;;;;;;5077073;28;20475;-70
2023/05/31 06:41:15;;;;;;;4.22;2.30;;;;;;;;;;5061183;28;20028;-70
2023/05/31 06:43:40;;;;;;;2.38;1.83;;;;;;;;;;5077721;28;20035;-70
2023/05/31 06:46:19;;;;;;;4.57;2.05;;;;;;;;;;5062867;28;20036;-70
2023/05/31 06:49:08;;;;;;;3.10;2.00;;;;;;;;;;5055500;28;20048;-70
2023/05/31 06:51:51;;;;;;;6.95;2.10;;;;;;;;;;5075592;28;20097;-68
2023/05/31 06:54:43;;;;;;;2.25;2.00;;;;;;;;;;5075324;28;20044;-68
2023/05/31 06:57:09;;;;;;;2.40;1.80;;;;;;;;;;5057426;28;20111;-67
2023/05/31 06:59:34;;;;;;;2.22;1.80;;;;;;;;;;5057358;28;20060;-68
2023/05/31 07:01:59;;;;;;;2.63;1.63;;;;;;;;;;5075321;28;20361;-67
2023/05/31 07:04:25;;;;;;;2.38;1.75;;;;;;;;;;5057281;28;20056;-68
2023/05/31 07:06:51;;;;;;;4.63;2.08;;;;;;;;;;5057204;28;20029;-68
2023/05/31 07:09:16;;;;;;;8.00;3.10;;;;;;;;;;5057152;28;20089;-68
2023/05/31 07:11:53;;;;;;;3.83;2.50;;;;;;;;;;5056941;28;20035;-68
2023/05/31 07:14:19;;;;;;;3.38;1.75;;;;;;;;;;5057435;28;20388;-68
2023/05/31 07:16:44;;;;;;;2.72;1.60;;;;;;;;;;5057002;28;20020;-68
2023/05/31 07:19:10;;;;;;;5.47;1.70;;;;;;;;;;5057334;28;20029;-68
2023/05/31 07:21:38;;;;;;;1.50;1.40;;;;;;;;;;5056931;28;20035;-68
2023/05/31 07:24:03;;;;;;;3.83;1.48;;;;;;;;;;5057004;28;20024;-68
2023/05/31 07:26:28;;;;;;;4.85;1.67;;;;;;;;;;5074705;28;20012;-68
2023/05/31 07:28:54;;;;;;;2.00;1.80;;;;;;;;;;5074700;28;20028;-68
2023/05/31 07:31:20;;;;;;;2.15;1.63;;;;;;;;;;5074721;28;20016;-68
2023/05/31 07:33:45;;;;;;;3.75;1.50;;;;;;;;;;5074499;28;20031;-69
2023/05/31 07:36:11;;;;;;;4.63;2.85;;;;;;;;;;5056607;28;20385;-69
2023/05/31 07:38:36;;;;;;;3.20;1.80;;;;;;;;;;5074506;28;20021;-69
2023/05/31 07:41:01;;;;;;;3.17;1.75;;;;;;;;;;5074505;28;20052;-69
2023/05/31 07:43:29;;;;;;;5.18;1.85;;;;;;;;;;5074406;28;20033;-69
2023/05/31 07:45:56;;;;;;;2.03;1.80;;;;;;;;;;5074474;28;20052;-69
2023/05/31 07:48:22;;;;;;;3.55;1.65;;;;;;;;;;5057056;28;20017;-69
2023/05/31 07:50:47;;;;;;;2.80;1.45;;;;;;;;;;5092926;28;20052;-69
2023/05/31 07:53:13;;;;;;;3.85;1.70;;;;;;;;;;5094401;28;20032;-69
2023/05/31 07:55:38;;;;;;;4.57;1.70;;;;;;;;;;5094445;28;20023;-69
2023/05/31 07:58:04;;;;;;;3.22;1.45;;;;;;;;;;5094343;28;20494;-69
2023/05/31 08:00:30;;;;;;;1.65;1.55;;;;;;;;;;5076296;28;20036;-69
2023/05/31 08:02:55;;;;;;;1.50;1.30;;;;;;;;;;5094165;28;20050;-69
2023/05/31 08:05:20;;;;;;;2.25;1.48;;;;;;;;;;5076226;28;20036;-69
2023/05/31 08:07:48;;;;;;;2.97;1.45;;;;;;;;;;5094089;28;20099;-69
2023/05/31 08:10:14;;;;;;;4.93;1.75;;;;;;;;;;5076165;28;20036;-68
2023/05/31 08:12:39;;;;;;;3.78;1.55;;;;;;;;;;5075988;28;20039;-68
2023/05/31 08:15:05;;;;;;;3.80;1.80;;;;;;;;;;5094042;28;20031;-69
2023/05/31 08:17:31;;;;;;;6.38;1.77;;;;;;;;;;5075896;28;20031;-69
2023/05/31 08:19:56;;;;;;;3.83;1.70;;;;;;;;;;5075767;28;20103;-68
2023/05/31 08:22:22;;;;;;;1.92;1.35;;;;;;;;;;5093966;28;20387;-69
2023/05/31 08:24:47;;;;;;;2.45;1.95;;;;;;;;;;5094149;28;20031;-68
2023/05/31 08:27:12;;;;;;;2.38;1.55;;;;;;;;;;5094009;28;20035;-68
2023/05/31 08:29:38;;;;;;;2.22;1.52;;;;;;;;;;5075696;28;20023;-68
2023/05/31 08:32:03;;;;;;;1.63;1.45;;;;;;;;;;5093711;28;20032;-69
2023/05/31 08:34:29;;;;;;;4.60;1.60;;;;;;;;;;5093662;28;20035;-68
2023/05/31 08:36:55;;;;;;;3.67;1.77;;;;;;;;;;5093753;28;20048;-69
2023/05/31 08:39:20;;;;;;;3.67;1.70;;;;;;;;;;5093673;28;20028;-68
2023/05/31 08:41:45;;;;;;;3.50;1.60;;;;;;;;;;5093545;28;20123;-68
2023/05/31 08:44:12;;;;;;;2.30;1.52;;;;;;;;;;5093591;28;20039;-69
2023/05/31 08:46:46;;;;;;;1.60;1.23;;;;;;;;;;5087281;22;20060;-68
2023/05/31 08:49:13;;;;;;;3.30;1.58;;;;;;;;;;5047059;28;20408;-70
2023/05/31 08:51:40;;;;;;;3.85;1.70;;;;;;;;;;5033440;28;20025;-68
2023/05/31 08:54:16;;;;;;;3.88;1.55;;;;;;;;;;5033618;28;20017;-68
2023/05/31 08:56:42;;;;;;;4.97;1.75;;;;;;;;;;5032364;28;20124;-68
2023/05/31 08:59:08;;;;;;;2.03;1.50;;;;;;;;;;5033416;28;20025;-68
2023/05/31 09:01:35;;;;;;;2.03;1.70;;;;;;;;;;5032839;28;20025;-68
2023/05/31 09:04:01;;;;;;;2.88;1.60;;;;;;;;;;5033350;28;20017;-68
2023/05/31 09:06:26;;;;;;;2.45;1.70;;;;;;;;;;5015666;28;20025;-68
2023/05/31 09:08:52;;;;;;;4.70;1.33;;;;;;;;;;5033247;28;20057;-68
2023/05/31 09:11:18;;;;;;;3.05;1.63;;;;;;;;;;5032271;28;20032;-68
2023/05/31 09:13:43;;;;;;;2.42;1.55;;;;;;;;;;5015485;28;20037;-68
2023/05/31 09:16:08;;;;;;;3.38;1.42;;;;;;;;;;5015557;28;20071;-68
2023/05/31 09:18:38;;;;;;;1.70;1.52;;;;;;;;;;5033207;28;20503;-68
2023/05/31 09:21:08;;;;;;;1.48;1.38;;;;;;;;;;5015557;28;20030;-67
2023/05/31 09:23:34;;;;;;;2.33;1.80;;;;;;;;;;5015133;28;20026;-68
2023/05/31 09:25:59;;;;;;;3.00;1.65;;;;;;;;;;5015418;28;20112;-68
2023/05/31 09:28:29;;;;;;;1.88;1.40;;;;;;;;;;5015435;28;20036;-68
2023/05/31 09:31:01;;;;;;;7.05;1.58;;;;;;;;;;5033133;28;20116;-68
2023/05/31 09:33:36;;;;;;;3.85;1.85;;;;;;;;;;5032915;28;20393;-68
2023/05/31 09:36:01;;;;;;;4.13;1.52;;;;;;;;;;5033002;28;20029;-68
2023/05/31 09:38:34;;;;;;;16.90;2.17;;;;;;;;;;5032968;28;20023;-68
2023/05/31 09:41:15;;;;;;;3.97;1.88;;;;;;;;;;5033191;28;20048;-68
2023/05/31 09:43:41;;;;;;;2.17;1.50;;;;;;;;;;5032825;28;20030;-71
2023/05/31 09:46:17;;;;;;;2.78;1.35;;;;;;;;;;5031731;28;20040;-71
2023/05/31 09:48:58;;;;;;;3.20;1.75;;;;;;;;;;5015167;28;20057;-71
2023/05/31 09:51:23;;;;;;;3.40;1.67;;;;;;;;;;5011801;28;20037;-71
2023/05/31 09:53:51;;;;;;;3.20;1.40;;;;;;;;;;5011778;28;20030;-71
2023/05/31 09:56:18;;;;;;;4.72;1.40;;;;;;;;;;5011767;28;20041;-71
2023/05/31 09:58:44;;;;;;;3.53;1.48;;;;;;;;;;4995795;28;20022;-71
2023/05/31 10:01:10;;;;;;;2.53;1.70;;;;;;;;;;5013066;28;20068;-71
2023/05/31 10:03:38;;;;;;;1.38;1.20;;;;;;;;;;5013011;28;20029;-71
2023/05/31 10:06:03;;;;;;;3.60;1.50;;;;;;;;;;5012976;28;20124;-71
2023/05/31 10:08:31;;;;;;;2.25;1.70;;;;;;;;;;4995277;28;20157;-71
2023/05/31 10:10:57;;;;;;;5.38;1.70;;;;;;;;;;5013043;28;20021;-71
2023/05/31 10:13:23;;;;;;;2.25;1.35;;;;;;;;;;5012864;28;20105;-71
2023/05/31 10:15:50;;;;;;;1.77;1.58;;;;;;;;;;5016101;28;20117;-71
2023/05/31 10:18:17;;;;;;;2.40;1.52;;;;;;;;;;5016316;28;20022;-71
2023/05/31 10:20:52;;;;;;;1.77;1.23;;;;;;;;;;5016323;28;20038;-71
2023/05/31 10:23:21;;;;;;;2.97;1.30;;;;;;;;;;5016271;28;20038;-71
2023/05/31 10:25:56;;;;;;;1.52;1.42;;;;;;;;;;4998788;28;20037;-71
2023/05/31 10:28:23;;;;;;;1.80;1.50;;;;;;;;;;5016240;28;20104;-71
2023/05/31 10:30:51;;;;;;;1.08;0.93;;;;;;;;;;5016091;28;20489;-71
2023/05/31 10:33:17;;;;;;;2.22;1.67;;;;;;;;;;5016361;28;20069;-71
2023/05/31 10:35:44;;;;;;;2.47;1.60;;;;;;;;;;4998491;28;20030;-71
2023/05/31 10:38:09;;;;;;;2.95;1.42;;;;;;;;;;5016028;28;20017;-71
2023/05/31 10:40:45;;;;;;;5.75;2.17;;;;;;;;;;5016069;28;20116;-71
2023/05/31 10:43:20;;;;;;;2.30;1.40;;;;;;;;;;5016021;28;20038;-71
2023/05/31 10:45:48;;;;;;;2.70;1.80;;;;;;;;;;5031165;28;20030;-71
2023/05/31 10:48:13;;;;;;;5.68;1.85;;;;;;;;;;5028070;28;20049;-71
2023/05/31 10:50:58;;;;;;;2.60;1.50;;;;;;;;;;5035643;28;20040;-71
2023/05/31 10:53:43;;;;;;;3.58;1.70;;;;;;;;;;5017809;28;20061;-71
2023/05/31 10:56:18;;;;;;;3.58;1.70;;;;;;;;;;5000692;28;20132;-71
2023/05/31 10:58:51;;;;;;;2.30;1.83;;;;;;;;;;5050779;28;20099;-71
2023/05/31 11:01:21;;;;;;;4.32;1.90;;;;;;;;;;5035424;28;20029;-71
2023/05/31 11:03:47;;;;;;;2.58;1.23;;;;;;;;;;5035401;28;20037;-71
2023/05/31 11:06:14;;;;;;;1.40;1.30;;;;;;;;;;5035382;28;20564;-71
2023/05/31 11:08:56;;;;;;;1.27;1.17;;;;;;;;;;5017501;28;20483;-71
2023/05/31 11:11:25;;;;;;;1.77;1.38;;;;;;;;;;5035249;28;20042;-71
2023/05/31 11:13:58;;;;;;;1.87;1.50;;;;;;;;;;5035128;28;20389;-71
2023/05/31 11:16:24;;;;;;;3.38;1.80;;;;;;;;;;5035131;28;20470;-71
2023/05/31 11:19:00;;;;;;;1.98;1.88;;;;;;;;;;5035044;28;20478;-70
2023/05/31 11:21:44;;;;;;;2.42;1.80;;;;;;;;;;5034973;28;20048;-71
2023/05/31 11:24:10;;;;;;;2.20;1.77;;;;;;;;;;5034941;28;20030;-71
2023/05/31 11:26:51;;;;;;;1.75;1.60;;;;;;;;;;5017063;28;20592;-71
2023/05/31 11:29:16;;;;;;;3.00;1.92;;;;;;;;;;5034886;28;20120;-71
2023/05/31 11:31:50;;;;;;;4.38;1.40;;;;;;;;;;5034630;28;20106;-71
2023/05/31 11:34:26;;;;;;;1.60;1.27;;;;;;;;;;5033489;28;20090;-71
2023/05/31 11:36:51;;;;;;;3.35;1.38;;;;;;;;;;5034745;28;20030;-71
2023/05/31 11:39:17;;;;;;;2.05;1.40;;;;;;;;;;5034717;28;20469;-70
2023/05/31 11:41:45;;;;;;;1.30;1.20;;;;;;;;;;5034563;28;20021;-71
2023/05/31 11:44:11;;;;;;;4.10;1.50;;;;;;;;;;5033431;28;20075;-70
2023/05/31 11:46:39;;;;;;;2.00;1.52;;;;;;;;;;5016842;28;20112;-70
2023/05/31 11:49:06;;;;;;;3.20;1.65;;;;;;;;;;5030023;28;20041;-71
2023/05/31 11:51:32;;;;;;;2.08;1.73;;;;;;;;;;5014649;28;20134;-71
2023/05/31 11:53:57;;;;;;;1.85;1.45;;;;;;;;;;5013295;28;20460;-71
2023/05/31 11:56:30;;;;;;;3.47;1.55;;;;;;;;;;5014483;28;20160;-71
2023/05/31 11:58:58;;;;;;;4.30;1.90;;;;;;;;;;5013248;28;20371;-71
2023/05/31 12:01:25;;;;;;;1.70;1.20;;;;;;;;;;4996719;28;20399;-71
2023/05/31 12:04:00;;;;;;;2.30;1.33;;;;;;;;;;5014419;28;20037;-70
2023/05/31 12:06:26;;;;;;;5.47;1.83;;;;;;;;;;5014428;28;20129;-68
2023/05/31 12:08:55;;;;;;;1.10;1.10;;;;;;;;;;5014555;28;20045;-68
2023/05/31 12:11:21;;;;;;;1.67;1.10;;;;;;;;;;5014251;28;20065;-68
2023/05/31 12:13:47;;;;;;;1.77;1.50;;;;;;;;;;5014049;28;20371;-68
2023/05/31 12:16:12;;;;;;;2.58;1.55;;;;;;;;;;5012947;28;20109;-68
2023/05/31 12:18:38;;;;;;;1.55;1.45;;;;;;;;;;4996634;28;20021;-68
2023/05/31 12:21:08;;;;;;;2.83;1.20;;;;;;;;;;5029280;28;20137;-68
2023/05/31 12:23:50;;;;;;;1.63;1.40;;;;;;;;;;5014367;28;20038;-68
2023/05/31 12:26:15;;;;;;;1.92;1.27;;;;;;;;;;5014039;28;20478;-70
2023/05/31 12:28:42;;;;;;;2.72;1.30;;;;;;;;;;5013918;28;20044;-71
2023/05/31 12:31:07;;;;;;;1.48;0.85;;;;;;;;;;4996436;28;20446;-70
2023/05/31 12:33:34;;;;;;;1.35;1.10;;;;;;;;;;4979998;28;20061;-71
2023/05/31 12:36:02;;;;;;;2.00;1.50;;;;;;;;;;5013842;28;20038;-71
2023/05/31 12:38:29;;;;;;;3.47;1.60;;;;;;;;;;5013294;28;20088;-71
2023/05/31 12:40:55;;;;;;;4.43;1.48;;;;;;;;;;5013667;28;20040;-68
2023/05/31 12:43:24;;;;;;;2.13;1.50;;;;;;;;;;5012500;28;20118;-68
2023/05/31 12:45:52;;;;;;;2.40;1.30;;;;;;;;;;4996306;28;20101;-68
2023/05/31 12:48:22;;;;;;;1.20;1.20;;;;;;;;;;5026613;28;20060;-68
2023/05/31 12:50:47;;;;;;;2.00;1.30;;;;;;;;;;5015552;28;20535;-68
2023/05/31 12:53:13;;;;;;;2.45;1.45;;;;;;;;;;5015730;28;20108;-68
2023/05/31 12:55:38;;;;;;;1.52;1.40;;;;;;;;;;5033307;28;20095;-68
2023/05/31 12:58:04;;;;;;;2.10;1.13;;;;;;;;;;5033274;28;20469;-68
2023/05/31 13:00:29;;;;;;;1.60;1.20;;;;;;;;;;5033240;28;20523;-68
2023/05/31 13:02:56;;;;;;;2.28;1.25;;;;;;;;;;5033134;28;20041;-68
2023/05/31 13:05:25;;;;;;;1.23;1.13;;;;;;;;;;5014978;28;20116;-68
2023/05/31 13:07:51;;;;;;;2.28;1.27;;;;;;;;;;5015332;28;20033;-68
2023/05/31 13:10:17;;;;;;;1.83;1.08;;;;;;;;;;5032091;28;20458;-68
2023/05/31 13:12:43;;;;;;;1.23;1.15;;;;;;;;;;5032090;28;20100;-68
2023/05/31 13:15:08;;;;;;;2.00;1.50;;;;;;;;;;5039729;28;20516;-68
2023/05/31 13:17:33;;;;;;;1.50;1.33;;;;;;;;;;5042435;28;20021;-68
2023/05/31 13:19:59;;;;;;;1.50;1.40;;;;;;;;;;5023974;28;20441;-68
2023/05/31 13:22:24;;;;;;;1.58;1.40;;;;;;;;;;5031112;28;20044;-71
2023/05/31 13:24:50;;;;;;;1.70;1.08;;;;;;;;;;5043169;28;20033;-70
2023/05/31 13:27:23;;;;;;;1.85;1.42;;;;;;;;;;5031879;28;20117;-71
2023/05/31 13:29:49;;;;;;;4.85;1.60;;;;;;;;;;5041459;28;20128;-71
2023/05/31 13:32:17;;;;;;;1.17;1.13;;;;;;;;;;5033728;28;20117;-71
2023/05/31 13:34:43;;;;;;;1.30;1.13;;;;;;;;;;5051784;28;20052;-71
2023/05/31 13:37:10;;;;;;;1.65;1.30;;;;;;;;;;5052829;28;20025;-70
2023/05/31 13:39:36;;;;;;;1.88;1.40;;;;;;;;;;5052268;28;20035;-73
2023/05/31 13:42:02;;;;;;;2.58;1.17;;;;;;;;;;5031821;28;20033;-71
2023/05/31 13:44:27;;;;;;;1.60;1.50;;;;;;;;;;5052129;28;20025;-71
2023/05/31 13:46:53;;;;;;;2.72;1.33;;;;;;;;;;5052993;28;20044;-71
2023/05/31 13:49:21;;;;;;;4.43;1.77;;;;;;;;;;5055681;28;20044;-71
2023/05/31 13:51:47;;;;;;;2.58;1.20;;;;;;;;;;5056525;28;20029;-71
2023/05/31 13:54:13;;;;;;;1.40;1.20;;;;;;;;;;5052834;28;20034;-71
2023/05/31 13:56:38;;;;;;;1.30;1.20;;;;;;;;;;5041216;28;20024;-63
2023/05/31 13:59:04;;;;;;;3.35;1.40;;;;;;;;;;5029073;28;20032;-63
2023/05/31 14:01:30;;;;;;;1.20;1.20;;;;;;;;;;5035227;28;20037;-71
2023/05/31 14:03:56;;;;;;;2.15;1.42;;;;;;;;;;5043401;28;20025;-71
2023/05/31 14:06:22;;;;;;;2.33;1.50;;;;;;;;;;5032714;28;20470;-71
2023/05/31 14:08:47;;;;;;;1.27;1.10;;;;;;;;;;5044097;28;20032;-71
2023/05/31 14:11:13;;;;;;;2.97;1.60;;;;;;;;;;5035525;28;20637;-71
2023/05/31 14:13:39;;;;;;;1.67;1.58;;;;;;;;;;5054642;28;20562;-71
2023/05/31 14:16:05;;;;;;;3.53;1.55;;;;;;;;;;5034413;28;20092;-71
2023/05/31 14:18:30;;;;;;;1.83;1.73;;;;;;;;;;5034902;28;20028;-71
2023/05/31 14:20:56;;;;;;;1.60;1.50;;;;;;;;;;5034404;28;20079;-65
2023/05/31 14:23:21;;;;;;;2.08;1.42;;;;;;;;;;5017750;28;20037;-63
2023/05/31 14:25:47;;;;;;;3.05;1.48;;;;;;;;;;5034312;28;20365;-63
2023/05/31 14:28:14;;;;;;;1.50;1.40;;;;;;;;;;5034182;28;20044;-63
2023/05/31 14:30:40;;;;;;;1.88;1.40;;;;;;;;;;5017882;28;20060;-63
2023/05/31 14:33:05;;;;;;;1.63;1.40;;;;;;;;;;5035566;28;20128;-63
2023/05/31 14:35:30;;;;;;;1.65;1.40;;;;;;;;;;5036109;28;20018;-63
2023/05/31 14:37:56;;;;;;;3.90;1.52;;;;;;;;;;5036708;28;20064;-63
2023/05/31 14:40:21;;;;;;;2.85;1.77;;;;;;;;;;5036287;28;20030;-63
2023/05/31 14:42:48;;;;;;;1.50;1.40;;;;;;;;;;5036422;28;20099;-63
2023/05/31 14:45:14;;;;;;;2.35;1.30;;;;;;;;;;5036231;28;20469;-63